Pau Brasil, Brazil
Current Conditions -  °F | °C
As of 7:00 PM on Wednesday 28 Jan 2015 (Local Time) from SBIL Reporting Station
Few Clouds Few Clouds  
Wind Chill: 81°   Ceiling: Unl
Heat Index: 85°   Visibility: 6mi
Dew Point: 72°   Wind: 6mph
Humidity: 74%   Direction: 110°ESE
Pressure: 29.91"   Gusts: NA
Location:  15.46°S, 39.65°W
Report Text: SBIL 282200Z 11005KT 9999 FEW025 27/22 Q1013
Loading
Personal Weather Stations






























Interactive Weather Map New forecast layout! Learn more

10-Day Weather Forecast

Advertisements
Track Severe Weather on mobile